Terminal Aerodrome Forecast
Issued by NWS Buffalo, NY

Home | Current Version | Previous Version | Text Only | Print | Product List | Glossary On
Versions: 1 2 3 4 5 6 7 8 9 10 11 12 13 14 15 16 17 18 19 20 21 22 23 24 25 26 27 28 29
000
FTUS41 KBUF 221700
TAFBUF
TAF
KBUF 221733Z 2218/2318 23007KT P6SM SKC
     FM230300 19007KT P6SM FEW250
     FM230800 22011KT P6SM SCT250
     FM231200 24012G21KT P6SM -SHRA BKN035
     FM231600 26009KT 6SM -SHRA OVC025
     FM231700 28008KT P6SM BKN025=

USA.gov is the U.S. government's official web portal to all federal, state and local government web resources and services.